sensor_id;sensor_type;location;lat;lon;timestamp;pressure;altitude;pressure_sealevel;temperature;humidity
596;BME280;19946;49.306;11.350;2023-04-20T01:30:15;96286.47;;;-0.75;100.00
596;BME280;19946;49.306;11.350;2023-04-20T01:33:16;96256.66;;;-0.90;100.00
596;BME280;19946;49.306;11.350;2023-04-20T01:36:16;96296.47;;;-0.70;100.00
596;BME280;19946;49.306;11.350;2023-04-20T01:39:18;96283.06;;;-0.74;100.00
596;BME280;19946;49.306;11.350;2023-04-20T01:42:18;96289.22;;;-0.59;100.00
596;BME280;19946;49.306;11.350;2023-04-20T01:45:19;96283.22;;;-0.77;100.00
596;BME280;19946;49.306;11.350;2023-04-20T01:48:20;96260.13;;;-0.93;100.00
596;BME280;19946;49.306;11.350;2023-04-20T01:51:21;96276.41;;;-0.77;100.00
596;BME280;19946;49.306;11.350;2023-04-20T01:54:21;96261.03;;;-0.94;100.00
596;BME280;19946;49.306;11.350;2023-04-20T01:57:22;96275.13;;;-0.66;100.00
596;BME280;19946;49.306;11.350;2023-04-20T02:00:22;96271.75;;;-0.67;100.00
596;BME280;19946;49.306;11.350;2023-04-20T02:03:22;96267.16;;;-0.59;100.00
596;BME280;19946;49.306;11.350;2023-04-20T02:06:23;96268.94;;;-0.42;100.00
596;BME280;19946;49.306;11.350;2023-04-20T02:09:23;96255.91;;;-0.34;100.00
596;BME280;19946;49.306;11.350;2023-04-20T02:12:23;96257.13;;;-0.24;100.00
596;BME280;19946;49.306;11.350;2023-04-20T02:15:24;96258.38;;;-0.33;100.00
596;BME280;19946;49.306;11.350;2023-04-20T02:18:24;96247.91;;;-0.27;100.00
596;BME280;19946;49.306;11.350;2023-04-20T02:21:24;96248.03;;;-0.30;100.00
596;BME280;19946;49.306;11.350;2023-04-20T02:24:25;96251.47;;;-0.31;100.00
596;BME280;19946;49.306;11.350;2023-04-20T02:27:27;96233.53;;;-0.28;100.00
596;BME280;19946;49.306;11.350;2023-04-20T02:30:28;96232.34;;;-0.21;100.00
596;BME280;19946;49.306;11.350;2023-04-20T02:33:28;96230.09;;;-0.27;100.00
596;BME280;19946;49.306;11.350;2023-04-20T02:36:29;96246.53;;;-0.15;100.00
596;BME280;19946;49.306;11.350;2023-04-20T02:39:30;96240.63;;;-0.34;100.00
596;BME280;19946;49.306;11.350;2023-04-20T02:42:30;96217.81;;;-0.55;100.00
596;BME280;19946;49.306;11.350;2023-04-20T02:45:32;96231.66;;;-0.43;100.00
596;BME280;19946;49.306;11.350;2023-04-20T02:48:33;96230.41;;;0.03;100.00
596;BME280;19946;49.306;11.350;2023-04-20T02:51:33;96223.50;;;-0.31;100.00
596;BME280;19946;49.306;11.350;2023-04-20T02:54:34;96223.41;;;-0.11;100.00
596;BME280;19946;49.306;11.350;2023-04-20T02:57:35;96180.88;;;-0.09;100.00
596;BME280;19946;49.306;11.350;2023-04-20T03:00:36;96213.88;;;0.12;100.00
596;BME280;19946;49.306;11.350;2023-04-20T03:03:40;96205.19;;;0.16;100.00
596;BME280;19946;49.306;11.350;2023-04-20T03:06:44;96225.75;;;0.47;100.00
596;BME280;19946;49.306;11.350;2023-04-20T03:09:48;96199.91;;;0.38;100.00
596;BME280;19946;49.306;11.350;2023-04-20T03:12:54;96202.53;;;0.36;100.00
596;BME280;19946;49.306;11.350;2023-04-20T03:16:23;96219.31;;;0.57;100.00
596;BME280;19946;49.306;11.350;2023-04-20T03:19:26;96220.28;;;0.55;100.00
596;BME280;19946;49.306;11.350;2023-04-20T03:22:26;96218.72;;;0.52;100.00
596;BME280;19946;49.306;11.350;2023-04-20T03:25:30;96183.72;;;0.21;100.00
596;BME280;19946;49.306;11.350;2023-04-20T03:28:41;96191.00;;;0.29;100.00
596;BME280;19946;49.306;11.350;2023-04-20T03:31:44;96218.88;;;0.49;100.00
596;BME280;19946;49.306;11.350;2023-04-20T03:34:45;96214.59;;;0.50;100.00
596;BME280;19946;49.306;11.350;2023-04-20T03:37:45;96219.63;;;0.51;100.00
596;BME280;19946;49.306;11.350;2023-04-20T03:40:46;96211.28;;;0.48;100.00
596;BME280;19946;49.306;11.350;2023-04-20T03:43:46;96194.75;;;0.39;100.00
596;BME280;19946;49.306;11.350;2023-04-20T03:46:46;96197.34;;;0.38;100.00
596;BME280;19946;49.306;11.350;2023-04-20T03:49:47;96182.28;;;0.33;100.00
596;BME280;19946;49.306;11.350;2023-04-20T03:52:47;96172.41;;;0.27;100.00
596;BME280;19946;49.306;11.350;2023-04-20T03:55:48;96132.09;;;0.00;100.00
596;BME280;19946;49.306;11.350;2023-04-20T03:58:53;96212.13;;;0.48;100.00
596;BME280;19946;49.306;11.350;2023-04-20T04:01:57;96185.91;;;0.29;100.00
596;BME280;19946;49.306;11.350;2023-04-20T04:04:57;96208.53;;;0.52;100.00
596;BME280;19946;49.306;11.350;2023-04-20T04:07:58;96204.34;;;0.51;100.00
596;BME280;19946;49.306;11.350;2023-04-20T04:10:59;96184.09;;;0.48;100.00
596;BME280;19946;49.306;11.350;2023-04-20T04:13:59;96172.19;;;0.31;100.00
596;BME280;19946;49.306;11.350;2023-04-20T04:17:01;96211.59;;;0.59;100.00
596;BME280;19946;49.306;11.350;2023-04-20T04:20:04;96212.09;;;0.65;100.00
596;BME280;19946;49.306;11.350;2023-04-20T04:23:07;96197.19;;;0.58;100.00
596;BME280;19946;49.306;11.350;2023-04-20T04:26:17;96192.09;;;0.58;100.00
596;BME280;19946;49.306;11.350;2023-04-20T04:29:20;96202.91;;;0.63;100.00
596;BME280;19946;49.306;11.350;2023-04-20T04:32:22;96180.25;;;0.57;100.00
596;BME280;19946;49.306;11.350;2023-04-20T04:35:23;96201.00;;;0.66;100.00
596;BME280;19946;49.306;11.350;2023-04-20T04:38:26;96168.66;;;0.51;100.00
596;BME280;19946;49.306;11.350;2023-04-20T04:41:26;96191.34;;;0.73;100.00
596;BME280;19946;49.306;11.350;2023-04-20T04:44:33;96172.69;;;0.55;100.00
596;BME280;19946;49.306;11.350;2023-04-20T04:47:35;96206.09;;;0.66;100.00
596;BME280;19946;49.306;11.350;2023-04-20T04:50:36;96197.81;;;0.63;100.00
596;BME280;19946;49.306;11.350;2023-04-20T04:53:36;96200.28;;;0.64;100.00
596;BME280;19946;49.306;11.350;2023-04-20T04:56:37;96184.25;;;0.62;100.00
596;BME280;19946;49.306;11.350;2023-04-20T04:59:37;96204.63;;;0.62;100.00
596;BME280;19946;49.306;11.350;2023-04-20T05:02:37;96207.00;;;0.65;100.00
596;BME280;19946;49.306;11.350;2023-04-20T05:05:38;96169.78;;;0.46;100.00
596;BME280;19946;49.306;11.350;2023-04-20T05:08:38;96202.84;;;0.64;100.00
596;BME280;19946;49.306;11.350;2023-04-20T05:11:38;96196.91;;;0.64;100.00
596;BME280;19946;49.306;11.350;2023-04-20T05:14:38;96189.72;;;0.72;100.00
596;BME280;19946;49.306;11.350;2023-04-20T05:17:39;96179.38;;;0.58;100.00
596;BME280;19946;49.306;11.350;2023-04-20T05:20:39;96171.25;;;0.67;100.00
596;BME280;19946;49.306;11.350;2023-04-20T05:23:40;96206.13;;;0.84;100.00
596;BME280;19946;49.306;11.350;2023-04-20T05:26:40;96205.66;;;0.93;100.00
596;BME280;19946;49.306;11.350;2023-04-20T05:29:40;96211.25;;;0.99;100.00
596;BME280;19946;49.306;11.350;2023-04-20T05:32:41;96212.34;;;1.11;100.00
596;BME280;19946;49.306;11.350;2023-04-20T05:35:41;96189.06;;;1.01;100.00
596;BME280;19946;49.306;11.350;2023-04-20T05:38:41;96185.13;;;1.12;100.00
596;BME280;19946;49.306;11.350;2023-04-20T05:41:41;96185.81;;;1.15;100.00
596;BME280;19946;49.306;11.350;2023-04-20T05:44:42;96177.66;;;1.24;100.00
596;BME280;19946;49.306;11.350;2023-04-20T05:47:51;96172.56;;;1.24;100.00
596;BME280;19946;49.306;11.350;2023-04-20T05:50:53;96180.72;;;1.31;100.00
596;BME280;19946;49.306;11.350;2023-04-20T05:53:53;96156.66;;;1.19;100.00
596;BME280;19946;49.306;11.350;2023-04-20T05:56:54;96204.19;;;1.53;100.00
596;BME280;19946;49.306;11.350;2023-04-20T05:59:54;96213.69;;;1.67;100.00
596;BME280;19946;49.306;11.350;2023-04-20T06:02:55;96204.78;;;1.74;100.00
596;BME280;19946;49.306;11.350;2023-04-20T06:05:55;96199.84;;;1.71;100.00
596;BME280;19946;49.306;11.350;2023-04-20T06:08:55;96181.47;;;1.64;100.00
596;BME280;19946;49.306;11.350;2023-04-20T06:11:57;96218.47;;;1.89;100.00
596;BME280;19946;49.306;11.350;2023-04-20T06:14:57;96195.91;;;1.81;100.00
596;BME280;19946;49.306;11.350;2023-04-20T06:17:58;96230.66;;;2.15;100.00
596;BME280;19946;49.306;11.350;2023-04-20T06:20:59;96194.75;;;2.02;100.00
596;BME280;19946;49.306;11.350;2023-04-20T06:24:01;96227.28;;;2.14;100.00
596;BME280;19946;49.306;11.350;2023-04-20T06:27:01;96225.78;;;2.10;100.00
596;BME280;19946;49.306;11.350;2023-04-20T06:30:02;96220.75;;;2.09;100.00
596;BME280;19946;49.306;11.350;2023-04-20T06:33:03;96207.81;;;1.96;100.00
596;BME280;19946;49.306;11.350;2023-04-20T06:36:06;96229.16;;;2.27;100.00
596;BME280;19946;49.306;11.350;2023-04-20T06:39:07;96223.69;;;2.17;100.00
596;BME280;19946;49.306;11.350;2023-04-20T06:42:08;96209.38;;;2.14;100.00
596;BME280;19946;49.306;11.350;2023-04-20T06:45:09;96220.91;;;2.37;100.00
596;BME280;19946;49.306;11.350;2023-04-20T06:48:09;96226.31;;;2.47;100.00
596;BME280;19946;49.306;11.350;2023-04-20T06:51:11;96204.34;;;2.59;100.00
596;BME280;19946;49.306;11.350;2023-04-20T06:54:11;96240.66;;;2.79;100.00
596;BME280;19946;49.306;11.350;2023-04-20T06:57:12;96228.16;;;2.89;100.00
596;BME280;19946;49.306;11.350;2023-04-20T07:00:12;96228.06;;;3.05;100.00
596;BME280;19946;49.306;11.350;2023-04-20T07:03:13;96231.81;;;2.99;100.00
596;BME280;19946;49.306;11.350;2023-04-20T07:06:13;96236.84;;;3.15;100.00
596;BME280;19946;49.306;11.350;2023-04-20T07:09:15;96227.56;;;3.28;100.00
596;BME280;19946;49.306;11.350;2023-04-20T07:12:18;96180.31;;;3.19;100.00
596;BME280;19946;49.306;11.350;2023-04-20T07:15:18;96205.44;;;3.55;100.00
596;BME280;19946;49.306;11.350;2023-04-20T07:18:18;96188.59;;;3.65;100.00
596;BME280;19946;49.306;11.350;2023-04-20T07:21:19;96192.81;;;3.66;100.00
596;BME280;19946;49.306;11.350;2023-04-20T07:24:19;96223.56;;;3.93;100.00
596;BME280;19946;49.306;11.350;2023-04-20T07:27:19;96224.28;;;3.95;100.00
596;BME280;19946;49.306;11.350;2023-04-20T07:30:20;96231.06;;;4.23;100.00
596;BME280;19946;49.306;11.350;2023-04-20T07:33:20;96233.63;;;4.23;100.00
596;BME280;19946;49.306;11.350;2023-04-20T07:36:20;96228.78;;;4.46;100.00
596;BME280;19946;49.306;11.350;2023-04-20T07:39:21;96232.91;;;4.48;100.00
596;BME280;19946;49.306;11.350;2023-04-20T07:42:24;96237.84;;;4.24;100.00
596;BME280;19946;49.306;11.350;2023-04-20T07:45:24;96230.16;;;4.24;100.00
596;BME280;19946;49.306;11.350;2023-04-20T07:48:25;96227.59;;;4.24;100.00
596;BME280;19946;49.306;11.350;2023-04-20T07:51:25;96221.31;;;4.43;100.00
596;BME280;19946;49.306;11.350;2023-04-20T07:54:25;96214.81;;;4.64;100.00
596;BME280;19946;49.306;11.350;2023-04-20T07:57:27;96232.88;;;4.88;100.00
596;BME280;19946;49.306;11.350;2023-04-20T08:00:28;96244.03;;;4.61;100.00
596;BME280;19946;49.306;11.350;2023-04-20T08:03:28;96235.56;;;4.73;100.00
596;BME280;19946;49.306;11.350;2023-04-20T08:06:28;96227.75;;;4.88;100.00
596;BME280;19946;49.306;11.350;2023-04-20T08:09:29;96168.25;;;4.30;100.00
596;BME280;19946;49.306;11.350;2023-04-20T08:12:29;96229.13;;;5.06;100.00
596;BME280;19946;49.306;11.350;2023-04-20T08:15:29;96178.19;;;5.12;100.00
596;BME280;19946;49.306;11.350;2023-04-20T08:18:30;96220.69;;;5.55;100.00
596;BME280;19946;49.306;11.350;2023-04-20T08:21:30;96189.50;;;5.35;100.00
596;BME280;19946;49.306;11.350;2023-04-20T08:24:30;96208.69;;;5.42;100.00
596;BME280;19946;49.306;11.350;2023-04-20T08:27:31;96209.69;;;5.53;100.00
596;BME280;19946;49.306;11.350;2023-04-20T08:30:31;96215.16;;;5.23;100.00
596;BME280;19946;49.306;11.350;2023-04-20T08:33:31;96179.72;;;4.90;100.00
596;BME280;19946;49.306;11.350;2023-04-20T08:36:32;96202.31;;;5.10;100.00
596;BME280;19946;49.306;11.350;2023-04-20T08:39:32;96196.25;;;4.98;100.00
596;BME280;19946;49.306;11.350;2023-04-20T08:42:33;96199.53;;;5.00;100.00
596;BME280;19946;49.306;11.350;2023-04-20T08:45:33;96195.97;;;5.16;100.00
596;BME280;19946;49.306;11.350;2023-04-20T08:48:36;96215.78;;;5.39;100.00
596;BME280;19946;49.306;11.350;2023-04-20T08:51:38;96200.94;;;5.68;100.00
596;BME280;19946;49.306;11.350;2023-04-20T08:54:38;96197.34;;;6.07;100.00
596;BME280;19946;49.306;11.350;2023-04-20T08:57:39;96197.66;;;6.15;100.00
596;BME280;19946;49.306;11.350;2023-04-20T09:00:47;96201.41;;;5.85;100.00
596;BME280;19946;49.306;11.350;2023-04-20T09:03:47;96202.03;;;6.26;100.00
596;BME280;19946;49.306;11.350;2023-04-20T09:06:50;96182.13;;;5.67;100.00
596;BME280;19946;49.306;11.350;2023-04-20T09:09:55;96199.94;;;6.07;100.00
596;BME280;19946;49.306;11.350;2023-04-20T09:12:55;96203.13;;;6.34;100.00
596;BME280;19946;49.306;11.350;2023-04-20T09:15:55;96181.94;;;6.54;100.00
596;BME280;19946;49.306;11.350;2023-04-20T09:18:56;96186.69;;;6.83;100.00
596;BME280;19946;49.306;11.350;2023-04-20T09:21:59;96174.06;;;6.80;100.00
596;BME280;19946;49.306;11.350;2023-04-20T09:25:11;96196.34;;;7.14;100.00
596;BME280;19946;49.306;11.350;2023-04-20T09:28:12;96167.66;;;6.62;100.00
596;BME280;19946;49.306;11.350;2023-04-20T09:31:20;96184.03;;;6.95;100.00
596;BME280;19946;49.306;11.350;2023-04-20T09:34:22;96142.13;;;6.93;100.00
596;BME280;19946;49.306;11.350;2023-04-20T09:37:23;96162.09;;;6.68;100.00
596;BME280;19946;49.306;11.350;2023-04-20T09:40:24;96171.66;;;6.31;100.00
596;BME280;19946;49.306;11.350;2023-04-20T09:43:26;96160.28;;;6.22;100.00
596;BME280;19946;49.306;11.350;2023-04-20T09:46:29;96169.28;;;6.28;100.00
596;BME280;19946;49.306;11.350;2023-04-20T09:49:33;96141.22;;;6.13;100.00
596;BME280;19946;49.306;11.350;2023-04-20T09:52:38;96173.81;;;6.13;100.00
596;BME280;19946;49.306;11.350;2023-04-20T09:55:39;96103.91;;;5.84;100.00
596;BME280;19946;49.306;11.350;2023-04-20T09:58:40;96165.44;;;6.22;100.00
596;BME280;19946;49.306;11.350;2023-04-20T10:01:42;96147.53;;;5.97;100.00
596;BME280;19946;49.306;11.350;2023-04-20T10:04:56;96145.53;;;5.89;100.00
596;BME280;19946;49.306;11.350;2023-04-20T10:07:59;96148.72;;;6.16;100.00
596;BME280;19946;49.306;11.350;2023-04-20T10:11:02;96126.75;;;6.00;100.00
596;BME280;19946;49.306;11.350;2023-04-20T10:14:22;96130.38;;;5.97;100.00
596;BME280;19946;49.306;11.350;2023-04-20T10:17:32;96154.38;;;6.09;100.00
596;BME280;19946;49.306;11.350;2023-04-20T10:20:33;96128.84;;;5.95;100.00
596;BME280;19946;49.306;11.350;2023-04-20T10:23:33;96148.97;;;6.01;100.00
596;BME280;19946;49.306;11.350;2023-04-20T10:26:41;96123.31;;;5.75;100.00
596;BME280;19946;49.306;11.350;2023-04-20T10:29:42;96150.38;;;5.68;100.00
596;BME280;19946;49.306;11.350;2023-04-20T10:32:43;96140.34;;;5.53;100.00
596;BME280;19946;49.306;11.350;2023-04-20T10:35:50;96137.50;;;5.44;100.00
596;BME280;19946;49.306;11.350;2023-04-20T10:38:50;96118.06;;;5.53;100.00
596;BME280;19946;49.306;11.350;2023-04-20T10:41:56;96121.16;;;5.95;100.00
596;BME280;19946;49.306;11.350;2023-04-20T10:45:01;96105.28;;;6.01;100.00
596;BME280;19946;49.306;11.350;2023-04-20T10:48:10;96112.72;;;5.93;100.00
596;BME280;19946;49.306;11.350;2023-04-20T10:51:10;96117.91;;;6.04;100.00
596;BME280;19946;49.306;11.350;2023-04-20T10:54:11;96084.44;;;5.93;100.00
596;BME280;19946;49.306;11.350;2023-04-20T10:57:15;96086.88;;;6.18;100.00
596;BME280;19946;49.306;11.350;2023-04-20T11:00:19;96098.19;;;6.50;100.00
596;BME280;19946;49.306;11.350;2023-04-20T11:03:20;96098.50;;;6.35;100.00
596;BME280;19946;49.306;11.350;2023-04-20T11:06:21;96094.69;;;6.51;100.00
596;BME280;19946;49.306;11.350;2023-04-20T11:09:23;96090.75;;;6.58;100.00
596;BME280;19946;49.306;11.350;2023-04-20T11:12:25;96105.00;;;6.16;100.00
596;BME280;19946;49.306;11.350;2023-04-20T11:15:32;96089.75;;;6.37;100.00
596;BME280;19946;49.306;11.350;2023-04-20T11:18:33;96073.19;;;6.64;100.00
596;BME280;19946;49.306;11.350;2023-04-20T11:21:38;96059.28;;;6.66;100.00
596;BME280;19946;49.306;11.350;2023-04-20T11:24:39;96038.31;;;6.37;100.00
596;BME280;19946;49.306;11.350;2023-04-20T11:27:40;96048.84;;;6.45;100.00
596;BME280;19946;49.306;11.350;2023-04-20T11:30:41;96002.03;;;6.18;100.00
596;BME280;19946;49.306;11.350;2023-04-20T11:33:42;96047.00;;;6.47;100.00
596;BME280;19946;49.306;11.350;2023-04-20T11:36:42;96031.88;;;6.43;100.00
596;BME280;19946;49.306;11.350;2023-04-20T11:39:42;96009.34;;;6.57;100.00
596;BME280;19946;49.306;11.350;2023-04-20T11:42:43;96043.84;;;7.00;100.00
596;BME280;19946;49.306;11.350;2023-04-20T11:45:43;96049.13;;;7.09;100.00
596;BME280;19946;49.306;11.350;2023-04-20T11:48:44;96001.03;;;6.99;100.00
596;BME280;19946;49.306;11.350;2023-04-20T11:51:45;96020.59;;;6.79;100.00
596;BME280;19946;49.306;11.350;2023-04-20T11:54:45;96045.25;;;6.92;100.00
596;BME280;19946;49.306;11.350;2023-04-20T11:57:46;96019.84;;;7.21;100.00
596;BME280;19946;49.306;11.350;2023-04-20T12:00:46;96037.88;;;7.21;100.00
596;BME280;19946;49.306;11.350;2023-04-20T12:03:46;96015.66;;;6.87;100.00
596;BME280;19946;49.306;11.350;2023-04-20T12:06:47;96032.03;;;7.08;100.00
596;BME280;19946;49.306;11.350;2023-04-20T12:09:47;96041.06;;;7.14;100.00
596;BME280;19946;49.306;11.350;2023-04-20T12:12:48;96019.72;;;7.23;100.00
596;BME280;19946;49.306;11.350;2023-04-20T12:15:48;96041.84;;;7.03;100.00
596;BME280;19946;49.306;11.350;2023-04-20T12:18:48;96041.16;;;7.12;100.00
596;BME280;19946;49.306;11.350;2023-04-20T12:21:48;96026.19;;;6.95;100.00
596;BME280;19946;49.306;11.350;2023-04-20T12:24:49;96028.63;;;7.08;100.00
596;BME280;19946;49.306;11.350;2023-04-20T12:27:49;96043.03;;;7.10;100.00
596;BME280;19946;49.306;11.350;2023-04-20T12:30:49;96025.34;;;6.72;100.00
596;BME280;19946;49.306;11.350;2023-04-20T12:33:50;96019.06;;;6.65;100.00
596;BME280;19946;49.306;11.350;2023-04-20T12:36:50;96039.97;;;6.72;100.00
596;BME280;19946;49.306;11.350;2023-04-20T12:39:50;96022.78;;;6.50;100.00
596;BME280;19946;49.306;11.350;2023-04-20T12:42:51;96003.94;;;6.38;100.00
596;BME280;19946;49.306;11.350;2023-04-20T12:45:51;96010.97;;;6.47;100.00
596;BME280;19946;49.306;11.350;2023-04-20T12:48:51;96034.00;;;6.71;100.00
596;BME280;19946;49.306;11.350;2023-04-20T12:51:52;96033.19;;;6.71;100.00
596;BME280;19946;49.306;11.350;2023-04-20T12:54:52;96030.50;;;6.61;100.00
596;BME280;19946;49.306;11.350;2023-04-20T12:57:52;95983.75;;;6.56;100.00
596;BME280;19946;49.306;11.350;2023-04-20T13:00:52;95976.72;;;6.58;100.00
596;BME280;19946;49.306;11.350;2023-04-20T13:03:53;96021.28;;;6.81;100.00
596;BME280;19946;49.306;11.350;2023-04-20T13:06:53;96030.88;;;6.79;100.00
596;BME280;19946;49.306;11.350;2023-04-20T13:09:53;96017.28;;;6.99;100.00
596;BME280;19946;49.306;11.350;2023-04-20T13:12:54;96023.03;;;7.03;100.00
596;BME280;19946;49.306;11.350;2023-04-20T13:15:55;96026.78;;;6.99;100.00
596;BME280;19946;49.306;11.350;2023-04-20T13:18:56;96029.56;;;7.18;100.00
596;BME280;19946;49.306;11.350;2023-04-20T13:21:56;96025.53;;;7.36;100.00
596;BME280;19946;49.306;11.350;2023-04-20T13:24:56;95995.66;;;7.56;100.00
596;BME280;19946;49.306;11.350;2023-04-20T13:27:57;95980.81;;;7.37;100.00
596;BME280;19946;49.306;11.350;2023-04-20T13:30:57;96024.59;;;7.37;100.00
596;BME280;19946;49.306;11.350;2023-04-20T13:33:57;96020.72;;;7.54;100.00
596;BME280;19946;49.306;11.350;2023-04-20T13:36:58;96005.38;;;7.84;100.00
596;BME280;19946;49.306;11.350;2023-04-20T13:39:58;95984.44;;;8.19;100.00
596;BME280;19946;49.306;11.350;2023-04-20T13:42:59;96002.28;;;8.43;100.00
596;BME280;19946;49.306;11.350;2023-04-20T13:45:59;95983.34;;;7.48;100.00
596;BME280;19946;49.306;11.350;2023-04-20T13:48:59;96017.06;;;7.56;100.00
596;BME280;19946;49.306;11.350;2023-04-20T13:52:00;95989.66;;;7.55;100.00
596;BME280;19946;49.306;11.350;2023-04-20T13:55:00;95979.84;;;7.49;100.00
596;BME280;19946;49.306;11.350;2023-04-20T13:58:01;96006.53;;;7.80;100.00
596;BME280;19946;49.306;11.350;2023-04-20T14:01:09;96018.97;;;7.86;100.00
596;BME280;19946;49.306;11.350;2023-04-20T14:04:10;95989.81;;;7.75;100.00
596;BME280;19946;49.306;11.350;2023-04-20T14:07:11;95984.16;;;7.81;100.00
596;BME280;19946;49.306;11.350;2023-04-20T14:10:11;95990.53;;;7.97;100.00
596;BME280;19946;49.306;11.350;2023-04-20T14:13:11;96003.28;;;7.78;100.00
596;BME280;19946;49.306;11.350;2023-04-20T14:16:12;96017.84;;;8.00;100.00
596;BME280;19946;49.306;11.350;2023-04-20T14:19:14;95983.22;;;8.02;100.00
596;BME280;19946;49.306;11.350;2023-04-20T14:22:14;95991.38;;;7.98;100.00
596;BME280;19946;49.306;11.350;2023-04-20T14:25:15;95999.41;;;8.04;100.00
596;BME280;19946;49.306;11.350;2023-04-20T14:28:15;95956.50;;;8.03;100.00
596;BME280;19946;49.306;11.350;2023-04-20T14:31:16;95994.09;;;8.38;100.00
596;BME280;19946;49.306;11.350;2023-04-20T14:34:17;96000.16;;;8.16;100.00
596;BME280;19946;49.306;11.350;2023-04-20T14:37:17;95994.31;;;7.93;100.00
596;BME280;19946;49.306;11.350;2023-04-20T14:40:18;95972.31;;;7.57;100.00
596;BME280;19946;49.306;11.350;2023-04-20T14:43:19;96007.31;;;7.92;100.00
596;BME280;19946;49.306;11.350;2023-04-20T14:46:19;96010.59;;;7.62;100.00
596;BME280;19946;49.306;11.350;2023-04-20T14:49:19;95998.19;;;7.67;100.00
596;BME280;19946;49.306;11.350;2023-04-20T14:52:20;95960.28;;;7.47;100.00
596;BME280;19946;49.306;11.350;2023-04-20T14:55:20;95988.78;;;7.77;100.00
596;BME280;19946;49.306;11.350;2023-04-20T14:58:25;95946.53;;;7.89;100.00
596;BME280;19946;49.306;11.350;2023-04-20T15:01:26;95968.91;;;8.10;100.00
596;BME280;19946;49.306;11.350;2023-04-20T15:04:26;95950.22;;;8.17;100.00
596;BME280;19946;49.306;11.350;2023-04-20T15:07:27;95961.28;;;8.29;100.00
596;BME280;19946;49.306;11.350;2023-04-20T15:10:27;95973.16;;;8.31;100.00
596;BME280;19946;49.306;11.350;2023-04-20T15:13:28;95928.66;;;8.18;100.00
596;BME280;19946;49.306;11.350;2023-04-20T15:16:28;95961.53;;;8.47;100.00
596;BME280;19946;49.306;11.350;2023-04-20T15:19:28;95926.94;;;8.28;100.00
596;BME280;19946;49.306;11.350;2023-04-20T15:22:29;95940.03;;;8.36;100.00
596;BME280;19946;49.306;11.350;2023-04-20T15:25:29;95916.00;;;8.15;100.00
596;BME280;19946;49.306;11.350;2023-04-20T15:28:30;95904.97;;;8.34;100.00
596;BME280;19946;49.306;11.350;2023-04-20T15:31:30;95938.31;;;8.47;100.00
596;BME280;19946;49.306;11.350;2023-04-20T15:34:30;95917.06;;;8.13;100.00
596;BME280;19946;49.306;11.350;2023-04-20T15:37:31;95941.78;;;8.36;100.00
596;BME280;19946;49.306;11.350;2023-04-20T15:40:31;95937.19;;;8.39;100.00
596;BME280;19946;49.306;11.350;2023-04-20T15:43:31;95942.66;;;8.46;100.00
596;BME280;19946;49.306;11.350;2023-04-20T15:46:32;95945.09;;;8.78;100.00
596;BME280;19946;49.306;11.350;2023-04-20T15:49:32;95911.19;;;9.02;100.00
596;BME280;19946;49.306;11.350;2023-04-20T15:52:34;95929.91;;;8.85;100.00
596;BME280;19946;49.306;11.350;2023-04-20T15:55:38;95927.44;;;8.83;100.00
596;BME280;19946;49.306;11.350;2023-04-20T15:58:39;95896.00;;;8.68;100.00
596;BME280;19946;49.306;11.350;2023-04-20T16:01:40;95906.09;;;8.81;100.00
596;BME280;19946;49.306;11.350;2023-04-20T16:04:41;95926.41;;;8.95;100.00
596;BME280;19946;49.306;11.350;2023-04-20T16:07:41;95910.16;;;8.74;100.00
596;BME280;19946;49.306;11.350;2023-04-20T16:10:42;95937.63;;;8.75;100.00
596;BME280;19946;49.306;11.350;2023-04-20T16:13:42;95931.22;;;8.79;100.00
596;BME280;19946;49.306;11.350;2023-04-20T16:16:42;95916.81;;;8.76;100.00
596;BME280;19946;49.306;11.350;2023-04-20T16:19:42;95927.22;;;8.96;100.00
596;BME280;19946;49.306;11.350;2023-04-20T16:22:43;95940.97;;;9.15;100.00
596;BME280;19946;49.306;11.350;2023-04-20T16:25:43;95919.19;;;8.99;100.00
596;BME280;19946;49.306;11.350;2023-04-20T16:28:43;95918.25;;;9.09;100.00
596;BME280;19946;49.306;11.350;2023-04-20T16:31:43;95913.88;;;8.91;100.00
596;BME280;19946;49.306;11.350;2023-04-20T16:34:44;95935.66;;;9.07;100.00
596;BME280;19946;49.306;11.350;2023-04-20T16:37:44;95933.91;;;9.08;100.00
596;BME280;19946;49.306;11.350;2023-04-20T16:40:45;95906.28;;;8.49;100.00
596;BME280;19946;49.306;11.350;2023-04-20T16:43:46;95915.94;;;8.57;100.00
596;BME280;19946;49.306;11.350;2023-04-20T16:46:48;95921.50;;;8.52;100.00
596;BME280;19946;49.306;11.350;2023-04-20T16:49:49;95933.97;;;8.26;100.00
596;BME280;19946;49.306;11.350;2023-04-20T16:52:49;95958.03;;;8.06;100.00
596;BME280;19946;49.306;11.350;2023-04-20T16:55:49;95947.84;;;8.04;100.00
596;BME280;19946;49.306;11.350;2023-04-20T16:58:50;95955.44;;;7.85;100.00
596;BME280;19946;49.306;11.350;2023-04-20T17:01:50;95946.69;;;7.56;100.00
596;BME280;19946;49.306;11.350;2023-04-20T17:04:50;95966.22;;;7.58;100.00
596;BME280;19946;49.306;11.350;2023-04-20T17:07:51;95943.78;;;7.49;100.00
596;BME280;19946;49.306;11.350;2023-04-20T17:10:51;95936.97;;;7.48;100.00
596;BME280;19946;49.306;11.350;2023-04-20T17:13:51;95947.78;;;7.42;100.00
596;BME280;19946;49.306;11.350;2023-04-20T17:16:51;95972.00;;;7.51;100.00
596;BME280;19946;49.306;11.350;2023-04-20T17:19:53;95960.78;;;7.41;100.00
596;BME280;19946;49.306;11.350;2023-04-20T17:22:53;95932.84;;;7.25;100.00
596;BME280;19946;49.306;11.350;2023-04-20T17:25:53;95955.56;;;7.31;100.00
596;BME280;19946;49.306;11.350;2023-04-20T17:28:54;95950.22;;;7.12;100.00
596;BME280;19946;49.306;11.350;2023-04-20T17:31:55;95942.53;;;7.01;100.00
596;BME280;19946;49.306;11.350;2023-04-20T17:34:55;95964.16;;;7.09;100.00
596;BME280;19946;49.306;11.350;2023-04-20T17:37:56;95946.25;;;7.08;100.00
596;BME280;19946;49.306;11.350;2023-04-20T17:40:58;95969.47;;;7.28;100.00